Time;durP1;ratioP1;P1;durP2;ratioP2;P2;SDS_P1;SDS_P2;PMS_P1;PMS_P2;Temp;Humidity;BMP_temperature;BMP_pressure;BME280_temperature;BME280_humidity;BME280_pressure;Samples;Min_cycle;Max_cycle;Signal;HPM_P1;HPM_P2
2022/10/28 00:01:17;;;;;;;43.87;24.10;;;14.80;99.90;;;;;;5134845;27;20510;-77
2022/10/28 00:03:46;;;;;;;41.97;21.57;;;14.80;99.90;;;;;;5136505;27;20275;-77
2022/10/28 00:06:14;;;;;;;41.10;21.10;;;14.80;99.90;;;;;;5134732;27;20502;-77
2022/10/28 00:08:40;;;;;;;44.87;22.53;;;14.80;99.90;;;;;;5136276;27;20876;-73
2022/10/28 00:11:07;;;;;;;39.10;21.93;;;14.80;99.90;;;;;;5134773;27;21036;-73
2022/10/28 00:13:33;;;;;;;37.77;20.73;;;14.80;99.90;;;;;;5136098;27;20411;-77
2022/10/28 00:16:09;;;;;;;41.60;21.33;;;14.80;99.90;;;;;;5135946;27;20812;-75
2022/10/28 00:18:35;;;;;;;35.40;19.87;;;14.80;99.90;;;;;;5136148;27;20403;-73
2022/10/28 00:21:03;;;;;;;36.63;20.90;;;14.80;99.90;;;;;;5134444;27;20522;-77
2022/10/28 00:23:29;;;;;;;38.97;20.23;;;14.80;99.90;;;;;;5136056;27;20490;-73
2022/10/28 00:25:54;;;;;;;40.17;20.30;;;14.80;99.90;;;;;;5135541;27;20616;-74
2022/10/28 00:28:21;;;;;;;42.10;22.00;;;14.80;99.90;;;;;;5135884;27;20290;-73
2022/10/28 00:30:47;;;;;;;47.90;23.87;;;14.80;99.90;;;;;;5135853;27;20881;-78
2022/10/28 00:33:12;;;;;;;42.87;21.97;;;14.80;99.90;;;;;;5135615;27;20167;-74
2022/10/28 00:35:38;;;;;;;37.27;21.77;;;14.80;99.90;;;;;;5134230;27;20194;-73
2022/10/28 00:38:03;;;;;;;35.70;19.90;;;14.80;99.90;;;;;;5135479;27;20174;-73
2022/10/28 00:40:33;;;;;;;43.17;22.10;;;14.80;99.90;;;;;;5134094;27;20198;-73
2022/10/28 00:42:59;;;;;;;39.10;20.93;;;14.80;99.90;;;;;;5134191;27;20179;-73
2022/10/28 00:45:25;;;;;;;38.60;21.00;;;14.80;99.90;;;;;;5135826;27;20882;-74
2022/10/28 00:48:01;;;;;;;38.87;20.67;;;14.80;99.90;;;;;;5135421;27;20175;-73
2022/10/28 00:50:30;;;;;;;38.87;19.50;;;14.80;99.90;;;;;;5134482;27;20267;-73
2022/10/28 00:53:01;;;;;;;36.60;21.10;;;14.70;99.90;;;;;;5134055;27;20931;-73
2022/10/28 00:55:28;;;;;;;41.17;21.90;;;14.70;99.90;;;;;;5134593;27;20512;-77
2022/10/28 00:57:58;;;;;;;39.90;20.37;;;14.70;99.90;;;;;;5133972;27;20419;-77
2022/10/28 01:00:24;;;;;;;38.80;20.50;;;14.70;99.90;;;;;;5135587;27;20435;-73
2022/10/28 01:02:50;;;;;;;40.43;22.63;;;14.80;99.90;;;;;;5135196;27;20399;-77
2022/10/28 01:05:20;;;;;;;41.27;20.93;;;14.70;99.90;;;;;;5135383;27;20474;-73
2022/10/28 01:07:45;;;;;;;42.83;22.00;;;14.70;99.90;;;;;;5135050;27;20167;-77
2022/10/28 01:10:12;;;;;;;43.27;21.27;;;14.70;99.90;;;;;;5135357;27;20455;-77
2022/10/28 01:12:46;;;;;;;39.93;23.00;;;14.70;99.90;;;;;;5133700;27;20171;-77
2022/10/28 01:15:43;;;;;;;39.97;21.63;;;14.70;99.90;;;;;;5133737;27;21061;-77
2022/10/28 01:18:26;;;;;;;42.03;22.40;;;14.80;99.90;;;;;;5134965;27;20880;-74
2022/10/28 01:21:23;;;;;;;45.50;23.73;;;14.80;99.90;;;;;;5134835;27;20419;-77
2022/10/28 01:23:58;;;;;;;40.10;22.07;;;14.80;99.90;;;;;;5133559;27;20439;-77
2022/10/28 01:26:27;;;;;;;44.50;22.47;;;14.80;99.90;;;;;;5133303;27;20475;-73
2022/10/28 01:29:17;;;;;;;47.30;21.87;;;14.70;99.90;;;;;;5133584;27;20438;-73
2022/10/28 01:31:57;;;;;;;44.33;20.10;;;14.70;99.90;;;;;;5133542;27;20916;-73
2022/10/28 01:34:22;;;;;;;43.07;21.33;;;14.70;99.90;;;;;;5133520;27;20423;-77
2022/10/28 01:37:06;;;;;;;49.67;22.70;;;14.70;99.90;;;;;;5133421;28;20414;-75
2022/10/28 01:39:36;;;;;;;41.60;19.30;;;14.70;99.90;;;;;;5135147;27;20195;-77
2022/10/28 01:42:02;;;;;;;49.73;21.23;;;14.70;99.90;;;;;;5134728;27;20894;-73
2022/10/28 01:44:54;;;;;;;44.63;22.13;;;14.70;99.90;;;;;;5134957;27;20474;-73
2022/10/28 01:47:38;;;;;;;42.17;21.10;;;14.70;99.90;;;;;;5130421;28;20191;-77
2022/10/28 01:50:25;;;;;;;41.67;22.07;;;14.70;99.90;;;;;;5134951;27;20423;-77
2022/10/28 01:52:55;;;;;;;45.63;22.90;;;14.70;99.90;;;;;;5133277;28;20415;-73
2022/10/28 01:55:33;;;;;;;48.80;21.53;;;14.70;99.90;;;;;;5134984;27;20796;-77
2022/10/28 01:58:02;;;;;;;44.70;21.97;;;14.70;99.90;;;;;;5134559;27;20987;-73
2022/10/28 02:00:29;;;;;;;48.67;22.20;;;14.70;99.90;;;;;;5134626;27;20475;-77
2022/10/28 02:02:55;;;;;;;41.63;21.87;;;14.70;99.90;;;;;;5134537;27;20964;-77
2022/10/28 02:05:41;;;;;;;46.90;20.00;;;14.70;99.90;;;;;;5133182;27;20843;-77
2022/10/28 02:08:19;;;;;;;51.67;22.40;;;14.70;99.90;;;;;;5137881;27;20484;-73
2022/10/28 02:11:14;;;;;;;44.67;23.13;;;14.70;99.90;;;;;;5137122;27;20496;-73
2022/10/28 02:13:43;;;;;;;46.40;22.07;;;14.70;99.90;;;;;;5137326;27;20814;-77
2022/10/28 02:16:17;;;;;;;45.83;21.53;;;14.70;99.90;;;;;;5138199;27;20426;-77
2022/10/28 02:19:09;;;;;;;35.73;18.90;;;14.70;99.90;;;;;;5136981;27;20529;-77
2022/10/28 02:22:09;;;;;;;44.53;23.03;;;14.70;99.90;;;;;;5131944;27;20923;-77
2022/10/28 02:24:43;;;;;;;46.60;21.20;;;14.70;99.90;;;;;;5084968;27;20551;-73
2022/10/28 02:27:24;;;;;;;43.03;21.30;;;14.70;99.90;;;;;;5136808;27;20410;-77
2022/10/28 02:30:14;;;;;;;46.60;21.13;;;14.70;99.90;;;;;;5138491;27;20884;-73
2022/10/28 02:32:45;;;;;;;52.83;22.50;;;14.70;99.90;;;;;;5137612;27;20509;-73
2022/10/28 02:35:16;;;;;;;47.90;21.77;;;14.70;99.90;;;;;;5138418;27;20450;-77
2022/10/28 02:37:45;;;;;;;51.33;22.67;;;14.60;99.90;;;;;;5138032;27;20399;-73
2022/10/28 02:40:17;;;;;;;41.37;20.40;;;14.60;99.90;;;;;;5137704;27;20435;-77
2022/10/28 02:42:57;;;;;;;43.70;21.20;;;14.60;99.90;;;;;;5136548;27;20407;-77
2022/10/28 02:45:46;;;;;;;44.07;21.17;;;14.60;99.90;;;;;;5138063;27;20477;-73
2022/10/28 02:48:27;;;;;;;47.33;20.40;;;14.60;99.90;;;;;;5135725;27;20498;-78
2022/10/28 02:51:22;;;;;;;38.97;19.90;;;14.60;99.90;;;;;;5136374;27;20796;-73
2022/10/28 02:54:03;;;;;;;50.40;21.40;;;14.60;99.90;;;;;;5133716;27;20470;-77
2022/10/28 02:56:33;;;;;;;48.30;19.80;;;14.50;99.90;;;;;;5136741;27;20794;-77
2022/10/28 02:58:59;;;;;;;42.63;19.80;;;14.50;99.90;;;;;;5137868;27;20415;-73
2022/10/28 03:01:25;;;;;;;39.83;20.77;;;14.50;99.90;;;;;;5136075;27;20526;-73
2022/10/28 03:03:50;;;;;;;42.10;20.93;;;14.50;99.90;;;;;;5136307;27;20186;-78
2022/10/28 03:06:16;;;;;;;35.03;18.10;;;14.50;99.90;;;;;;5137182;27;20240;-73
2022/10/28 03:08:42;;;;;;;36.47;19.00;;;14.50;99.90;;;;;;5136116;27;20183;-73
2022/10/28 03:11:08;;;;;;;38.07;18.70;;;14.50;99.90;;;;;;5135886;27;20872;-77
2022/10/28 03:13:33;;;;;;;40.30;20.23;;;14.50;99.90;;;;;;5137325;27;20508;-73
2022/10/28 03:15:59;;;;;;;38.03;20.20;;;14.40;99.90;;;;;;5135876;27;20191;-77
2022/10/28 03:18:25;;;;;;;41.37;18.73;;;14.40;99.90;;;;;;5136441;27;20179;-73
2022/10/28 03:20:50;;;;;;;38.10;17.80;;;14.40;99.90;;;;;;5135762;27;20214;-77
2022/10/28 03:23:16;;;;;;;40.23;18.37;;;14.40;99.90;;;;;;5137007;27;20212;-77
2022/10/28 03:25:41;;;;;;;39.53;19.50;;;14.40;99.90;;;;;;5136657;27;20226;-77
2022/10/28 03:28:07;;;;;;;39.93;19.03;;;14.40;99.90;;;;;;5137072;27;20177;-73
2022/10/28 03:30:33;;;;;;;43.23;18.73;;;14.40;99.90;;;;;;5136856;27;20233;-73
2022/10/28 03:32:58;;;;;;;44.97;22.13;;;14.40;99.90;;;;;;5136791;27;20228;-76
2022/10/28 03:35:24;;;;;;;40.73;20.97;;;14.50;99.90;;;;;;5137295;27;20201;-76
2022/10/28 03:37:50;;;;;;;38.93;18.07;;;14.50;99.90;;;;;;5135586;27;20658;-73
2022/10/28 03:40:15;;;;;;;39.10;17.73;;;14.50;99.90;;;;;;5135579;27;20199;-73
2022/10/28 03:42:41;;;;;;;39.10;19.87;;;14.60;99.90;;;;;;5136667;27;20968;-77
2022/10/28 03:45:08;;;;;;;49.17;20.50;;;14.60;99.90;;;;;;5135386;27;20644;-73
2022/10/28 03:47:34;;;;;;;42.27;21.53;;;14.60;99.90;;;;;;5136542;27;20173;-73
2022/10/28 03:50:00;;;;;;;38.83;18.97;;;14.60;99.90;;;;;;5135192;27;20455;-73
2022/10/28 03:52:26;;;;;;;37.70;19.87;;;14.60;99.90;;;;;;5136444;27;20464;-76
2022/10/28 03:54:51;;;;;;;38.17;18.53;;;14.70;99.90;;;;;;5136783;27;20218;-73
2022/10/28 03:57:17;;;;;;;43.93;21.53;;;14.70;99.90;;;;;;5136356;27;20171;-73
2022/10/28 03:59:42;;;;;;;38.67;19.53;;;14.70;99.90;;;;;;5136852;27;20191;-77
2022/10/28 04:02:08;;;;;;;38.90;21.27;;;14.70;99.90;;;;;;5135977;27;20185;-76
2022/10/28 04:04:33;;;;;;;40.30;20.50;;;14.60;99.90;;;;;;5136175;27;20289;-77
2022/10/28 04:06:59;;;;;;;39.23;18.13;;;14.70;99.90;;;;;;5135935;27;20167;-76
2022/10/28 04:09:25;;;;;;;38.77;17.67;;;14.60;99.90;;;;;;5134584;27;20619;-77
2022/10/28 04:11:50;;;;;;;39.20;19.77;;;14.70;99.90;;;;;;5135795;27;20178;-73
2022/10/28 04:14:16;;;;;;;37.40;19.00;;;14.70;99.90;;;;;;5133615;27;20187;-77
2022/10/28 04:16:41;;;;;;;36.63;18.23;;;14.70;99.90;;;;;;5133415;27;20174;-77
2022/10/28 04:19:07;;;;;;;39.40;17.77;;;14.70;99.90;;;;;;5135432;27;20179;-77
2022/10/28 04:21:33;;;;;;;34.10;16.97;;;14.70;99.90;;;;;;5135311;27;20171;-73
2022/10/28 04:23:58;;;;;;;35.50;17.90;;;14.70;99.90;;;;;;5117002;27;20179;-77
2022/10/28 04:26:24;;;;;;;37.97;19.50;;;14.70;99.90;;;;;;5134677;27;20230;-73
2022/10/28 04:28:49;;;;;;;31.90;16.90;;;14.70;99.90;;;;;;5135613;27;20183;-73
2022/10/28 04:31:15;;;;;;;37.63;17.43;;;14.70;99.90;;;;;;5116170;27;20191;-76
2022/10/28 04:33:41;;;;;;;36.90;18.10;;;14.70;99.90;;;;;;5117222;27;20506;-76
2022/10/28 04:36:07;;;;;;;39.10;17.80;;;14.70;99.90;;;;;;5135170;27;20282;-73
2022/10/28 04:38:32;;;;;;;33.57;17.50;;;14.70;99.90;;;;;;5134870;27;20187;-76
2022/10/28 04:40:58;;;;;;;31.27;16.53;;;14.70;99.90;;;;;;5135215;27;20522;-73
2022/10/28 04:43:24;;;;;;;38.37;19.20;;;14.70;99.90;;;;;;5116956;27;20210;-77
2022/10/28 04:45:49;;;;;;;42.13;18.97;;;14.70;99.90;;;;;;5135114;27;21050;-76
2022/10/28 04:48:15;;;;;;;41.10;19.37;;;14.70;99.90;;;;;;5135253;27;20202;-73
2022/10/28 04:50:41;;;;;;;37.40;17.90;;;14.70;99.90;;;;;;5135215;27;20567;-73
2022/10/28 04:53:07;;;;;;;41.63;19.10;;;14.70;99.90;;;;;;5135133;27;20249;-77
2022/10/28 04:55:32;;;;;;;37.33;19.50;;;14.70;99.90;;;;;;5134240;27;20541;-74
2022/10/28 04:57:59;;;;;;;35.37;17.70;;;14.70;99.90;;;;;;5128267;27;20175;-73
2022/10/28 05:00:27;;;;;;;34.53;16.93;;;14.70;99.90;;;;;;5132817;27;20235;-73
2022/10/28 05:02:52;;;;;;;32.07;16.07;;;14.70;99.90;;;;;;5115619;27;20435;-77
2022/10/28 05:05:18;;;;;;;34.03;16.27;;;14.70;99.90;;;;;;5130120;27;20578;-73
2022/10/28 05:07:44;;;;;;;34.13;17.37;;;14.60;99.90;;;;;;5115849;27;20186;-73
2022/10/28 05:10:12;;;;;;;33.00;15.10;;;14.60;99.90;;;;;;5134876;27;20461;-73
2022/10/28 05:12:41;;;;;;;35.87;15.70;;;14.60;99.90;;;;;;5133447;27;20411;-77
2022/10/28 05:15:08;;;;;;;32.10;16.10;;;14.60;99.90;;;;;;5133737;27;21042;-77
2022/10/28 05:17:33;;;;;;;33.13;15.03;;;14.50;99.90;;;;;;5110727;27;20526;-73
2022/10/28 05:19:59;;;;;;;35.50;17.10;;;14.50;99.90;;;;;;5128328;27;20546;-77
2022/10/28 05:22:24;;;;;;;32.27;16.30;;;14.50;99.90;;;;;;5132393;27;20632;-73
2022/10/28 05:24:50;;;;;;;37.90;17.47;;;14.50;99.90;;;;;;5132716;27;20246;-73
2022/10/28 05:27:16;;;;;;;40.57;18.80;;;14.40;99.90;;;;;;5114364;27;20643;-76
2022/10/28 05:29:41;;;;;;;40.30;17.50;;;14.50;99.90;;;;;;5129718;27;20202;-76
2022/10/28 05:32:07;;;;;;;42.13;19.33;;;14.50;99.90;;;;;;5112136;28;20695;-73
2022/10/28 05:34:33;;;;;;;36.03;18.07;;;14.40;99.90;;;;;;5131435;27;20191;-76
2022/10/28 05:37:02;;;;;;;35.57;16.80;;;14.40;99.90;;;;;;5131775;28;20597;-73
2022/10/28 05:39:27;;;;;;;38.70;19.60;;;14.40;99.90;;;;;;5111885;27;20920;-77
2022/10/28 05:41:53;;;;;;;39.13;19.17;;;14.40;99.90;;;;;;5133547;27;20482;-73
2022/10/28 05:44:18;;;;;;;37.13;16.73;;;14.40;99.90;;;;;;5117374;27;20278;-77
2022/10/28 05:46:44;;;;;;;41.57;18.23;;;14.40;99.90;;;;;;5133512;27;20850;-75
2022/10/28 05:49:10;;;;;;;34.67;18.03;;;14.40;99.90;;;;;;5132780;27;20187;-77
2022/10/28 05:51:35;;;;;;;38.33;16.50;;;14.40;99.90;;;;;;5127948;27;20259;-73
2022/10/28 05:54:01;;;;;;;39.17;18.80;;;14.40;99.90;;;;;;5130389;27;20546;-76
2022/10/28 05:56:26;;;;;;;32.27;17.43;;;14.40;99.90;;;;;;5130018;27;20243;-73
2022/10/28 05:58:52;;;;;;;36.43;16.17;;;14.40;99.90;;;;;;5135756;27;20207;-73
2022/10/28 06:01:18;;;;;;;33.93;17.40;;;14.40;99.90;;;;;;5133008;27;20684;-73
2022/10/28 06:03:43;;;;;;;29.10;14.77;;;14.30;99.90;;;;;;5115630;27;20175;-73
2022/10/28 06:06:09;;;;;;;40.10;16.07;;;14.30;99.90;;;;;;5116319;27;20215;-73
2022/10/28 06:08:35;;;;;;;33.93;16.30;;;14.30;99.90;;;;;;5119927;27;20199;-73
2022/10/28 06:11:00;;;;;;;33.33;16.83;;;14.30;99.90;;;;;;5118750;27;20204;-72
2022/10/28 06:13:26;;;;;;;29.97;15.30;;;14.30;99.90;;;;;;5114403;27;20187;-73
2022/10/28 06:15:56;;;;;;;31.70;14.80;;;14.30;99.90;;;;;;5120980;27;20524;-77
2022/10/28 06:18:23;;;;;;;29.90;15.43;;;14.30;99.90;;;;;;5125010;27;20194;-77
2022/10/28 06:20:56;;;;;;;32.23;15.40;;;14.30;99.90;;;;;;5111080;27;20454;-73
2022/10/28 06:23:23;;;;;;;35.20;16.60;;;14.30;99.90;;;;;;5130128;27;20449;-77
2022/10/28 06:25:49;;;;;;;35.70;15.63;;;14.30;99.90;;;;;;5127277;27;21271;-77
2022/10/28 06:28:14;;;;;;;35.17;16.73;;;14.30;99.90;;;;;;5110683;27;20427;-78
2022/10/28 06:30:41;;;;;;;36.03;16.53;;;14.30;99.90;;;;;;5123430;27;20453;-73
2022/10/28 06:33:06;;;;;;;33.30;16.50;;;14.30;99.90;;;;;;5109055;27;20179;-78
2022/10/28 06:35:32;;;;;;;36.73;16.90;;;14.30;99.90;;;;;;5129234;27;20475;-73
2022/10/28 06:37:57;;;;;;;31.10;15.20;;;14.30;99.90;;;;;;5125726;27;20285;-76
2022/10/28 06:40:25;;;;;;;34.90;16.83;;;14.40;99.90;;;;;;5128622;27;20290;-78
2022/10/28 06:42:58;;;;;;;30.50;15.23;;;14.40;99.90;;;;;;5105277;27;20236;-78
2022/10/28 06:45:24;;;;;;;29.73;15.47;;;14.40;99.90;;;;;;5106023;27;20488;-77
2022/10/28 06:47:54;;;;;;;31.87;16.40;;;14.40;99.90;;;;;;5122689;27;20979;-77
2022/10/28 06:50:20;;;;;;;37.93;20.40;;;14.30;99.90;;;;;;5100461;27;20675;-73
2022/10/28 06:52:46;;;;;;;36.83;16.40;;;14.30;99.90;;;;;;5101715;28;20460;-77
2022/10/28 06:55:11;;;;;;;34.20;16.77;;;14.30;99.90;;;;;;5121607;27;20215;-78
2022/10/28 06:57:37;;;;;;;34.93;16.80;;;14.40;99.90;;;;;;5128984;27;20183;-78
2022/10/28 07:00:03;;;;;;;32.67;15.97;;;14.30;99.90;;;;;;5126906;27;20199;-78
2022/10/28 07:02:30;;;;;;;31.07;16.10;;;14.30;99.90;;;;;;5110795;27;20180;-72
2022/10/28 07:04:56;;;;;;;34.40;15.60;;;14.30;99.90;;;;;;5108941;27;20569;-73
2022/10/28 07:07:21;;;;;;;31.07;16.13;;;14.40;99.90;;;;;;5109086;27;20525;-73
2022/10/28 07:09:47;;;;;;;29.33;15.30;;;14.40;99.90;;;;;;5127066;27;20198;-73
2022/10/28 07:12:13;;;;;;;27.47;15.73;;;14.30;99.90;;;;;;5120835;27;20704;-73
2022/10/28 07:14:38;;;;;;;29.17;13.57;;;14.30;99.90;;;;;;5100719;27;20213;-72
2022/10/28 07:17:04;;;;;;;27.40;13.70;;;14.30;99.90;;;;;;5119741;27;20182;-72
2022/10/28 07:19:30;;;;;;;29.93;14.70;;;14.30;99.90;;;;;;5101386;27;20203;-73
2022/10/28 07:21:55;;;;;;;24.47;13.37;;;14.30;99.90;;;;;;5116381;27;20187;-79
2022/10/28 07:24:21;;;;;;;29.73;15.47;;;14.40;99.90;;;;;;5094513;27;20564;-76
2022/10/28 07:26:50;;;;;;;38.43;16.37;;;14.40;99.90;;;;;;5104223;27;20222;-77
2022/10/28 07:29:16;;;;;;;30.13;14.43;;;14.40;99.90;;;;;;5121421;27;20312;-71
2022/10/28 07:31:42;;;;;;;28.90;13.53;;;14.40;99.90;;;;;;5102965;27;20482;-72
2022/10/28 07:34:08;;;;;;;25.83;13.90;;;14.40;99.90;;;;;;5105656;27;21242;-72
2022/10/28 07:36:34;;;;;;;27.97;15.77;;;14.50;99.90;;;;;;5118948;27;20211;-72
2022/10/28 07:38:59;;;;;;;29.07;15.00;;;14.40;99.90;;;;;;5106428;27;20435;-77
2022/10/28 07:41:25;;;;;;;28.50;14.80;;;14.40;99.90;;;;;;5109447;27;20454;-73
2022/10/28 07:43:51;;;;;;;25.87;14.57;;;14.40;99.90;;;;;;5096321;27;20892;-82
2022/10/28 07:46:18;;;;;;;31.97;15.57;;;14.50;99.90;;;;;;5121490;27;20446;-80
2022/10/28 07:48:43;;;;;;;24.87;13.90;;;14.40;99.90;;;;;;5123503;27;20270;-78
2022/10/28 07:51:11;;;;;;;27.83;13.90;;;14.50;99.90;;;;;;5125361;27;20553;-77
2022/10/28 07:53:37;;;;;;;27.80;14.23;;;14.40;99.90;;;;;;5118263;27;20571;-71
2022/10/28 07:56:08;;;;;;;29.87;14.20;;;14.50;99.90;;;;;;5099877;27;20447;-72
2022/10/28 07:58:34;;;;;;;29.10;15.97;;;14.50;99.90;;;;;;5104089;27;21058;-72
2022/10/28 08:01:05;;;;;;;27.60;13.60;;;14.40;99.90;;;;;;5123235;27;20462;-72
2022/10/28 08:03:31;;;;;;;28.20;14.93;;;14.40;99.90;;;;;;5109307;27;20457;-76
2022/10/28 08:06:08;;;;;;;36.20;16.13;;;14.50;99.90;;;;;;5122209;27;21794;-73
2022/10/28 08:08:35;;;;;;;28.30;15.43;;;14.50;99.90;;;;;;5125153;27;20502;-72
2022/10/28 08:11:24;;;;;;;35.03;16.43;;;14.40;99.90;;;;;;5108718;27;20438;-72
2022/10/28 08:13:51;;;;;;;35.23;17.03;;;14.50;99.90;;;;;;5130832;27;20488;-72
2022/10/28 08:16:17;;;;;;;33.00;15.60;;;14.50;99.90;;;;;;5128327;27;20446;-74
2022/10/28 08:18:44;;;;;;;26.97;14.10;;;14.50;99.90;;;;;;5103792;27;20927;-72
2022/10/28 08:21:10;;;;;;;31.20;15.33;;;14.50;99.90;;;;;;5109335;27;20451;-72
2022/10/28 08:23:37;;;;;;;28.33;14.20;;;14.50;99.90;;;;;;5122297;27;20442;-73
2022/10/28 08:26:05;;;;;;;32.33;15.60;;;14.50;99.90;;;;;;5121627;27;20590;-74
2022/10/28 08:28:30;;;;;;;34.90;17.90;;;14.50;99.90;;;;;;5125715;27;20468;-73
2022/10/28 08:31:01;;;;;;;30.67;17.53;;;14.50;99.90;;;;;;5121727;27;20450;-72
2022/10/28 08:33:27;;;;;;;31.73;14.90;;;14.60;99.90;;;;;;5102979;27;20273;-72
2022/10/28 08:35:52;;;;;;;34.10;16.60;;;14.60;99.90;;;;;;5127140;27;20519;-72
2022/10/28 08:38:18;;;;;;;37.90;16.47;;;14.60;99.90;;;;;;5122377;27;20502;-73
2022/10/28 08:41:09;;;;;;;34.90;15.00;;;14.70;99.90;;;;;;5117382;27;20234;-73
2022/10/28 08:43:41;;;;;;;34.90;17.13;;;14.70;99.90;;;;;;5068905;27;20294;-72
2022/10/28 08:46:28;;;;;;;28.33;15.50;;;14.70;99.90;;;;;;5116632;27;20481;-73
2022/10/28 08:48:54;;;;;;;32.00;16.57;;;14.80;99.90;;;;;;5115722;27;20431;-72
2022/10/28 08:51:50;;;;;;;31.00;14.90;;;14.80;99.90;;;;;;5120265;27;20458;-73
2022/10/28 08:54:46;;;;;;;30.83;13.70;;;14.80;99.90;;;;;;5066240;27;20510;-73
2022/10/28 08:57:19;;;;;;;30.63;15.60;;;14.80;99.90;;;;;;5120756;27;20432;-74
2022/10/28 08:59:48;;;;;;;30.77;15.27;;;14.90;99.90;;;;;;5098862;27;20459;-73
2022/10/28 09:02:23;;;;;;;29.50;15.57;;;14.90;99.90;;;;;;5104975;27;21304;-73
2022/10/28 09:05:06;;;;;;;30.67;16.30;;;14.90;99.90;;;;;;5107415;27;20474;-73
2022/10/28 09:07:35;;;;;;;26.00;13.80;;;14.90;99.90;;;;;;5126674;27;20451;-73
2022/10/28 09:10:03;;;;;;;28.20;14.10;;;15.00;99.90;;;;;;5105695;27;20466;-72
2022/10/28 09:12:58;;;;;;;29.70;15.43;;;15.00;99.90;;;;;;5117640;27;20459;-73
2022/10/28 09:16:06;;;;;;;30.07;14.97;;;15.00;99.90;;;;;;5122602;27;20508;-72
2022/10/28 09:18:52;;;;;;;32.57;15.87;;;15.00;99.90;;;;;;5120494;27;20836;-73
2022/10/28 09:21:47;;;;;;;28.27;13.17;;;15.00;99.90;;;;;;5105290;27;20450;-74
2022/10/28 09:24:28;;;;;;;28.70;14.97;;;15.10;99.90;;;;;;5121172;27;20495;-73
2022/10/28 09:27:28;;;;;;;36.33;17.30;;;15.10;99.90;;;;;;5096845;27;20901;-72
2022/10/28 09:30:19;;;;;;;26.43;14.20;;;15.10;99.90;;;;;;5079956;28;20604;-73
2022/10/28 09:33:06;;;;;;;29.97;15.90;;;15.10;99.90;;;;;;5095340;27;20866;-74
2022/10/28 09:35:39;;;;;;;28.97;14.90;;;15.10;99.90;;;;;;5102813;27;20462;-73
2022/10/28 09:38:21;;;;;;;28.73;15.67;;;15.10;99.90;;;;;;5102279;28;20418;-73
2022/10/28 09:41:02;;;;;;;26.20;14.00;;;15.10;99.90;;;;;;5106230;28;20519;-73
2022/10/28 09:43:41;;;;;;;29.67;15.73;;;15.10;99.90;;;;;;5121162;28;20426;-75
2022/10/28 09:46:11;;;;;;;35.43;15.70;;;15.20;99.90;;;;;;5123760;28;20470;-74
2022/10/28 09:48:46;;;;;;;28.43;14.87;;;15.20;99.90;;;;;;5122773;28;20427;-75
2022/10/28 09:51:42;;;;;;;33.80;14.83;;;15.10;99.90;;;;;;5118321;28;20450;-74
2022/10/28 09:54:09;;;;;;;28.40;15.90;;;15.10;99.90;;;;;;5126662;28;20477;-74
2022/10/28 09:56:36;;;;;;;29.60;15.77;;;15.10;99.90;;;;;;5110488;28;20423;-74
2022/10/28 09:59:02;;;;;;;25.77;14.43;;;15.10;99.90;;;;;;5101433;28;20440;-74
2022/10/28 10:01:32;;;;;;;33.70;16.67;;;15.10;99.90;;;;;;5103547;28;20817;-73
2022/10/28 10:03:58;;;;;;;29.60;14.67;;;15.10;99.90;;;;;;5126488;28;20427;-74
2022/10/28 10:06:35;;;;;;;30.73;15.30;;;15.10;99.90;;;;;;5124790;28;20471;-74
2022/10/28 10:09:01;;;;;;;27.37;14.17;;;15.10;99.90;;;;;;5125336;28;20439;-74
2022/10/28 10:11:35;;;;;;;31.20;16.10;;;15.10;99.90;;;;;;5130405;28;20458;-75
2022/10/28 10:14:15;;;;;;;29.20;17.13;;;15.20;99.90;;;;;;5127025;28;20430;-74
2022/10/28 10:16:55;;;;;;;29.53;16.37;;;15.20;99.90;;;;;;5126126;28;20452;-74
2022/10/28 10:19:21;;;;;;;28.60;16.17;;;15.20;99.90;;;;;;5119929;28;20458;-74
2022/10/28 10:21:49;;;;;;;29.67;14.80;;;15.20;99.90;;;;;;5105730;28;20765;-74
2022/10/28 10:24:24;;;;;;;30.00;15.40;;;15.20;99.90;;;;;;5126113;28;20427;-74
2022/10/28 10:26:53;;;;;;;30.53;14.77;;;15.20;99.90;;;;;;5128602;27;20450;-74
2022/10/28 10:29:20;;;;;;;28.53;15.27;;;15.30;99.90;;;;;;5132076;27;20431;-74
2022/10/28 10:31:46;;;;;;;28.90;14.17;;;15.20;99.90;;;;;;5136945;27;20431;-74
2022/10/28 10:34:24;;;;;;;29.43;16.53;;;15.30;99.90;;;;;;5127481;27;20444;-74
2022/10/28 10:36:52;;;;;;;28.73;15.83;;;15.30;99.90;;;;;;5107183;27;20411;-74
2022/10/28 10:39:36;;;;;;;27.30;14.30;;;15.30;99.90;;;;;;5106926;27;20438;-74
2022/10/28 10:42:02;;;;;;;28.43;17.60;;;15.40;99.90;;;;;;5119430;27;20435;-74
2022/10/28 10:44:33;;;;;;;33.47;17.30;;;15.40;99.90;;;;;;5122904;27;20462;-74
2022/10/28 10:46:59;;;;;;;25.30;15.57;;;15.40;99.90;;;;;;5099348;27;20447;-75
2022/10/28 10:49:26;;;;;;;29.17;14.83;;;15.40;99.90;;;;;;5111615;27;20504;-73
2022/10/28 10:51:55;;;;;;;27.13;15.10;;;15.40;99.90;;;;;;5117305;27;20184;-74
2022/10/28 10:54:21;;;;;;;25.67;15.30;;;15.40;99.90;;;;;;5121437;27;20445;-74
2022/10/28 10:56:47;;;;;;;24.97;14.73;;;15.40;99.90;;;;;;5124112;27;20409;-74
2022/10/28 10:59:28;;;;;;;37.43;22.90;;;15.50;99.90;;;;;;5124478;27;20450;-74
2022/10/28 11:01:55;;;;;;;35.67;20.40;;;15.50;99.90;;;;;;5119413;27;20241;-74
2022/10/28 11:04:22;;;;;;;26.13;14.37;;;15.50;99.90;;;;;;5123675;27;20435;-74
2022/10/28 11:06:56;;;;;;;35.30;16.27;;;15.40;99.90;;;;;;5123756;27;20462;-74
2022/10/28 11:09:35;;;;;;;35.47;16.60;;;15.40;99.90;;;;;;5104625;27;20434;-73
2022/10/28 11:12:15;;;;;;;32.87;18.17;;;15.40;99.90;;;;;;5123781;27;20978;-73
2022/10/28 11:14:54;;;;;;;27.47;15.57;;;15.40;99.90;;;;;;5104898;27;20457;-73
2022/10/28 11:17:37;;;;;;;25.43;15.50;;;15.40;99.90;;;;;;5122790;27;20400;-74
2022/10/28 11:20:29;;;;;;;36.47;18.10;;;15.40;99.90;;;;;;5120698;27;20859;-73
2022/10/28 11:23:21;;;;;;;28.83;17.13;;;15.40;99.90;;;;;;5122990;27;20400;-73
2022/10/28 11:25:50;;;;;;;26.33;15.90;;;15.40;99.90;;;;;;5104448;28;21055;-73
2022/10/28 11:28:22;;;;;;;31.50;18.20;;;15.50;99.90;;;;;;5096729;28;20427;-73
2022/10/28 11:31:22;;;;;;;30.07;18.23;;;15.50;99.90;;;;;;5099754;28;20456;-73
2022/10/28 11:34:15;;;;;;;27.57;16.47;;;15.50;99.90;;;;;;5057319;28;20432;-73
2022/10/28 11:36:49;;;;;;;34.97;18.70;;;15.50;99.90;;;;;;5096919;28;20478;-73
2022/10/28 11:39:18;;;;;;;35.70;19.27;;;15.50;99.90;;;;;;5103213;28;20450;-73
2022/10/28 11:42:05;;;;;;;30.93;18.37;;;15.50;99.90;;;;;;5097196;28;20430;-72
2022/10/28 11:44:55;;;;;;;33.60;19.40;;;15.50;99.90;;;;;;5098472;28;20457;-72
2022/10/28 11:48:04;;;;;;;34.90;18.90;;;15.50;99.90;;;;;;5100486;28;20462;-73
2022/10/28 11:50:45;;;;;;;39.90;22.00;;;15.50;99.90;;;;;;5099666;28;20850;-73
2022/10/28 11:53:31;;;;;;;32.80;18.60;;;15.50;99.90;;;;;;5102877;27;20484;-73
2022/10/28 11:56:09;;;;;;;32.53;19.73;;;15.50;99.90;;;;;;5099512;28;20892;-73
2022/10/28 11:58:41;;;;;;;37.30;20.93;;;15.50;99.90;;;;;;5101599;28;20447;-73
2022/10/28 12:01:25;;;;;;;34.70;19.90;;;15.50;99.90;;;;;;5104608;28;20475;-72
2022/10/28 12:03:57;;;;;;;40.23;20.07;;;15.50;99.90;;;;;;5103517;28;20420;-71
2022/10/28 12:06:45;;;;;;;34.37;17.90;;;15.50;99.90;;;;;;5119404;27;20517;-72
2022/10/28 12:09:31;;;;;;;41.10;19.90;;;15.50;99.90;;;;;;5106469;28;20838;-71
2022/10/28 12:12:15;;;;;;;43.07;19.87;;;15.50;99.90;;;;;;5107689;28;20421;-70
2022/10/28 12:14:56;;;;;;;33.40;18.60;;;15.50;99.90;;;;;;5102324;28;20452;-71
2022/10/28 12:17:34;;;;;;;35.30;22.20;;;15.50;99.90;;;;;;5099520;28;20421;-73
2022/10/28 12:20:24;;;;;;;34.00;18.60;;;15.50;99.90;;;;;;5101852;28;20505;-73
2022/10/28 12:22:57;;;;;;;35.40;18.90;;;15.50;99.90;;;;;;5107207;28;20475;-73
2022/10/28 12:25:29;;;;;;;33.53;19.60;;;15.50;99.90;;;;;;5118209;27;20489;-73
2022/10/28 12:28:00;;;;;;;34.80;21.40;;;15.60;99.90;;;;;;5123999;27;21182;-73
2022/10/28 12:30:31;;;;;;;34.80;20.80;;;15.60;99.90;;;;;;5126316;27;20450;-73
2022/10/28 12:33:03;;;;;;;40.17;23.87;;;15.60;99.90;;;;;;5127231;27;21017;-73
2022/10/28 12:35:37;;;;;;;35.20;21.83;;;15.60;99.90;;;;;;5126112;27;20431;-71
2022/10/28 12:38:14;;;;;;;38.20;23.07;;;15.60;99.90;;;;;;5120897;27;20432;-73
2022/10/28 12:40:49;;;;;;;40.53;19.97;;;15.70;99.90;;;;;;5123770;27;21027;-72
2022/10/28 12:43:23;;;;;;;38.37;20.13;;;15.70;99.90;;;;;;5127912;27;20407;-72
2022/10/28 12:45:51;;;;;;;36.63;20.10;;;15.70;99.90;;;;;;5122338;27;20470;-72
2022/10/28 12:48:27;;;;;;;36.10;21.00;;;15.70;99.90;;;;;;5117436;27;20434;-72
2022/10/28 12:51:15;;;;;;;39.30;19.63;;;15.70;99.90;;;;;;5097808;28;20446;-74